Terminal Aerodrome Forecast
Issued by NWS

Home | Current Version | Previous Version | Text Only | Print | Product List | Glossary On
Versions: 1 2 3 4 5 6 7 8 9 10 11 12 13 14 15 16 17 18 19
000
FTUS41 KAKQ 202300
TAFPHF
TAF
KPHF 202338Z 2100/2124 04015G23KT P6SM BKN040
     FM210400 04009KT P6SM BKN035
     FM211000 03010KT P6SM BKN025 OVC040
     FM211500 03011KT P6SM SCT040
     FM211900 04007KT P6SM SKC=

USA.gov is the U.S. government's official web portal to all federal, state and local government web resources and services.